sensor_id;sensor_type;location;lat;lon;timestamp;P1;durP1;ratioP1;P2;durP2;ratioP2
72771;SDS011;60894;42.544;1.516;2023-02-28T00:01:18;1.70;;;0.80;;
72771;SDS011;60894;42.544;1.516;2023-02-28T00:03:45;2.00;;;0.80;;
72771;SDS011;60894;42.544;1.516;2023-02-28T00:06:12;1.63;;;0.90;;
72771;SDS011;60894;42.544;1.516;2023-02-28T00:08:40;2.05;;;0.88;;
72771;SDS011;60894;42.544;1.516;2023-02-28T00:11:10;1.25;;;0.75;;
72771;SDS011;60894;42.544;1.516;2023-02-28T00:13:40;2.25;;;0.90;;
72771;SDS011;60894;42.544;1.516;2023-02-28T00:16:11;2.83;;;1.00;;
72771;SDS011;60894;42.544;1.516;2023-02-28T00:18:40;1.93;;;0.97;;
72771;SDS011;60894;42.544;1.516;2023-02-28T00:21:08;3.30;;;1.00;;
72771;SDS011;60894;42.544;1.516;2023-02-28T00:23:35;2.75;;;1.10;;
72771;SDS011;60894;42.544;1.516;2023-02-28T00:26:02;2.42;;;1.00;;
72771;SDS011;60894;42.544;1.516;2023-02-28T00:28:30;2.35;;;1.00;;
72771;SDS011;60894;42.544;1.516;2023-02-28T00:30:58;4.00;;;1.90;;
72771;SDS011;60894;42.544;1.516;2023-02-28T00:33:26;3.10;;;1.30;;
72771;SDS011;60894;42.544;1.516;2023-02-28T00:36:00;2.40;;;0.93;;
72771;SDS011;60894;42.544;1.516;2023-02-28T00:38:29;3.83;;;1.60;;
72771;SDS011;60894;42.544;1.516;2023-02-28T00:40:56;3.45;;;1.17;;
72771;SDS011;60894;42.544;1.516;2023-02-28T00:43:29;2.77;;;1.20;;
72771;SDS011;60894;42.544;1.516;2023-02-28T00:45:56;2.53;;;1.20;;
72771;SDS011;60894;42.544;1.516;2023-02-28T00:48:25;2.33;;;0.88;;
72771;SDS011;60894;42.544;1.516;2023-02-28T00:50:52;3.50;;;1.20;;
72771;SDS011;60894;42.544;1.516;2023-02-28T00:53:19;3.60;;;1.40;;
72771;SDS011;60894;42.544;1.516;2023-02-28T00:55:46;3.43;;;1.30;;
72771;SDS011;60894;42.544;1.516;2023-02-28T00:58:12;2.63;;;1.10;;
72771;SDS011;60894;42.544;1.516;2023-02-28T01:00:39;3.53;;;1.27;;
72771;SDS011;60894;42.544;1.516;2023-02-28T01:03:07;4.13;;;1.42;;
72771;SDS011;60894;42.544;1.516;2023-02-28T01:05:34;3.65;;;1.25;;
72771;SDS011;60894;42.544;1.516;2023-02-28T01:08:01;4.37;;;1.30;;
72771;SDS011;60894;42.544;1.516;2023-02-28T01:10:28;2.90;;;1.40;;
72771;SDS011;60894;42.544;1.516;2023-02-28T01:12:56;3.17;;;1.20;;
72771;SDS011;60894;42.544;1.516;2023-02-28T01:15:23;4.35;;;1.55;;
72771;SDS011;60894;42.544;1.516;2023-02-28T01:17:50;4.38;;;1.52;;
72771;SDS011;60894;42.544;1.516;2023-02-28T01:20:19;6.07;;;1.60;;
72771;SDS011;60894;42.544;1.516;2023-02-28T01:22:46;3.28;;;1.20;;
72771;SDS011;60894;42.544;1.516;2023-02-28T01:25:13;3.42;;;1.30;;
72771;SDS011;60894;42.544;1.516;2023-02-28T01:27:40;4.68;;;1.63;;
72771;SDS011;60894;42.544;1.516;2023-02-28T01:30:07;4.13;;;1.40;;
72771;SDS011;60894;42.544;1.516;2023-02-28T01:32:35;3.43;;;1.33;;
72771;SDS011;60894;42.544;1.516;2023-02-28T01:35:03;4.93;;;1.60;;
72771;SDS011;60894;42.544;1.516;2023-02-28T01:37:31;4.00;;;1.60;;
72771;SDS011;60894;42.544;1.516;2023-02-28T01:39:58;4.35;;;1.52;;
72771;SDS011;60894;42.544;1.516;2023-02-28T01:42:25;3.45;;;1.30;;
72771;SDS011;60894;42.544;1.516;2023-02-28T01:44:59;3.40;;;1.37;;
72771;SDS011;60894;42.544;1.516;2023-02-28T01:47:30;4.68;;;1.60;;
72771;SDS011;60894;42.544;1.516;2023-02-28T01:49:59;3.90;;;1.30;;
72771;SDS011;60894;42.544;1.516;2023-02-28T01:52:29;2.72;;;1.30;;
72771;SDS011;60894;42.544;1.516;2023-02-28T01:54:58;3.90;;;1.17;;
72771;SDS011;60894;42.544;1.516;2023-02-28T01:57:28;3.57;;;1.50;;
72771;SDS011;60894;42.544;1.516;2023-02-28T02:00:04;4.55;;;1.45;;
72771;SDS011;60894;42.544;1.516;2023-02-28T02:02:34;3.25;;;1.27;;
72771;SDS011;60894;42.544;1.516;2023-02-28T02:05:03;3.00;;;1.10;;
72771;SDS011;60894;42.544;1.516;2023-02-28T02:07:31;3.13;;;1.20;;
72771;SDS011;60894;42.544;1.516;2023-02-28T02:10:03;4.00;;;1.27;;
72771;SDS011;60894;42.544;1.516;2023-02-28T02:12:36;5.20;;;1.52;;
72771;SDS011;60894;42.544;1.516;2023-02-28T02:15:13;4.30;;;1.20;;
72771;SDS011;60894;42.544;1.516;2023-02-28T02:17:43;1.92;;;1.08;;
72771;SDS011;60894;42.544;1.516;2023-02-28T02:23:24;4.77;;;1.50;;
72771;SDS011;60894;42.544;1.516;2023-02-28T02:26:15;3.00;;;1.17;;
72771;SDS011;60894;42.544;1.516;2023-02-28T02:29:16;3.65;;;1.30;;
72771;SDS011;60894;42.544;1.516;2023-02-28T02:35:13;3.97;;;1.45;;
72771;SDS011;60894;42.544;1.516;2023-02-28T02:37:47;3.50;;;1.37;;
72771;SDS011;60894;42.544;1.516;2023-02-28T02:40:17;2.35;;;1.00;;
72771;SDS011;60894;42.544;1.516;2023-02-28T02:42:48;2.50;;;1.10;;
72771;SDS011;60894;42.544;1.516;2023-02-28T02:45:23;2.78;;;1.20;;
72771;SDS011;60894;42.544;1.516;2023-02-28T02:47:52;3.33;;;1.20;;
72771;SDS011;60894;42.544;1.516;2023-02-28T02:50:24;4.73;;;1.53;;
72771;SDS011;60894;42.544;1.516;2023-02-28T02:52:56;3.13;;;1.27;;
72771;SDS011;60894;42.544;1.516;2023-02-28T02:55:26;5.05;;;1.40;;
72771;SDS011;60894;42.544;1.516;2023-02-28T02:57:56;4.85;;;1.38;;
72771;SDS011;60894;42.544;1.516;2023-02-28T03:00:26;4.32;;;1.38;;
72771;SDS011;60894;42.544;1.516;2023-02-28T03:02:59;3.30;;;0.90;;
72771;SDS011;60894;42.544;1.516;2023-02-28T03:05:30;4.30;;;1.25;;
72771;SDS011;60894;42.544;1.516;2023-02-28T03:08:02;4.10;;;1.40;;
72771;SDS011;60894;42.544;1.516;2023-02-28T03:10:35;4.30;;;1.35;;
72771;SDS011;60894;42.544;1.516;2023-02-28T03:13:08;5.05;;;1.20;;
72771;SDS011;60894;42.544;1.516;2023-02-28T03:15:45;4.37;;;1.43;;
72771;SDS011;60894;42.544;1.516;2023-02-28T03:18:22;3.28;;;1.30;;
72771;SDS011;60894;42.544;1.516;2023-02-28T03:20:58;5.10;;;1.25;;
72771;SDS011;60894;42.544;1.516;2023-02-28T03:23:29;3.28;;;1.40;;
72771;SDS011;60894;42.544;1.516;2023-02-28T03:26:04;4.45;;;1.20;;
72771;SDS011;60894;42.544;1.516;2023-02-28T03:28:37;3.53;;;1.27;;
72771;SDS011;60894;42.544;1.516;2023-02-28T03:31:12;3.13;;;1.08;;
72771;SDS011;60894;42.544;1.516;2023-02-28T03:33:43;3.53;;;1.10;;
72771;SDS011;60894;42.544;1.516;2023-02-28T03:36:21;2.50;;;1.15;;
72771;SDS011;60894;42.544;1.516;2023-02-28T03:38:53;3.50;;;1.20;;
72771;SDS011;60894;42.544;1.516;2023-02-28T03:41:25;3.70;;;1.27;;
72771;SDS011;60894;42.544;1.516;2023-02-28T03:43:58;3.70;;;1.30;;
72771;SDS011;60894;42.544;1.516;2023-02-28T03:46:27;2.90;;;1.23;;
72771;SDS011;60894;42.544;1.516;2023-02-28T03:49:00;4.28;;;1.60;;
72771;SDS011;60894;42.544;1.516;2023-02-28T03:51:31;4.38;;;1.50;;
72771;SDS011;60894;42.544;1.516;2023-02-28T03:54:02;4.13;;;1.70;;
72771;SDS011;60894;42.544;1.516;2023-02-28T03:56:33;3.25;;;1.38;;
72771;SDS011;60894;42.544;1.516;2023-02-28T03:59:04;3.08;;;1.20;;
72771;SDS011;60894;42.544;1.516;2023-02-28T04:01:37;4.00;;;1.20;;
72771;SDS011;60894;42.544;1.516;2023-02-28T04:04:06;3.15;;;1.10;;
72771;SDS011;60894;42.544;1.516;2023-02-28T04:06:35;3.03;;;1.23;;
72771;SDS011;60894;42.544;1.516;2023-02-28T04:09:02;4.28;;;1.40;;
72771;SDS011;60894;42.544;1.516;2023-02-28T04:11:32;3.50;;;1.38;;
72771;SDS011;60894;42.544;1.516;2023-02-28T04:14:01;4.22;;;1.15;;
72771;SDS011;60894;42.544;1.516;2023-02-28T04:16:28;5.45;;;1.50;;
72771;SDS011;60894;42.544;1.516;2023-02-28T04:18:55;5.30;;;1.50;;
72771;SDS011;60894;42.544;1.516;2023-02-28T04:21:27;5.30;;;1.38;;
72771;SDS011;60894;42.544;1.516;2023-02-28T04:23:55;3.20;;;1.20;;
72771;SDS011;60894;42.544;1.516;2023-02-28T04:26:27;3.22;;;1.08;;
72771;SDS011;60894;42.544;1.516;2023-02-28T04:28:56;3.80;;;1.10;;
72771;SDS011;60894;42.544;1.516;2023-02-28T04:31:23;3.30;;;1.20;;
72771;SDS011;60894;42.544;1.516;2023-02-28T04:33:49;2.28;;;1.00;;
72771;SDS011;60894;42.544;1.516;2023-02-28T04:36:16;3.58;;;1.20;;
72771;SDS011;60894;42.544;1.516;2023-02-28T04:38:44;2.63;;;1.05;;
72771;SDS011;60894;42.544;1.516;2023-02-28T04:41:13;3.95;;;1.20;;
72771;SDS011;60894;42.544;1.516;2023-02-28T04:43:40;3.00;;;1.27;;
72771;SDS011;60894;42.544;1.516;2023-02-28T04:46:07;3.63;;;1.25;;
72771;SDS011;60894;42.544;1.516;2023-02-28T04:48:34;3.22;;;1.10;;
72771;SDS011;60894;42.544;1.516;2023-02-28T04:51:03;3.63;;;1.20;;
72771;SDS011;60894;42.544;1.516;2023-02-28T04:53:30;2.58;;;1.00;;
72771;SDS011;60894;42.544;1.516;2023-02-28T04:55:58;2.13;;;0.80;;
72771;SDS011;60894;42.544;1.516;2023-02-28T04:58:26;3.55;;;1.00;;
72771;SDS011;60894;42.544;1.516;2023-02-28T05:00:57;3.55;;;1.00;;
72771;SDS011;60894;42.544;1.516;2023-02-28T05:03:28;3.65;;;1.00;;
72771;SDS011;60894;42.544;1.516;2023-02-28T05:05:55;3.40;;;1.10;;
72771;SDS011;60894;42.544;1.516;2023-02-28T05:08:22;2.70;;;0.97;;
72771;SDS011;60894;42.544;1.516;2023-02-28T05:10:48;4.43;;;1.10;;
72771;SDS011;60894;42.544;1.516;2023-02-28T05:13:15;2.35;;;0.95;;
72771;SDS011;60894;42.544;1.516;2023-02-28T05:15:43;2.00;;;0.98;;
72771;SDS011;60894;42.544;1.516;2023-02-28T05:18:10;2.33;;;1.00;;
72771;SDS011;60894;42.544;1.516;2023-02-28T05:20:37;3.70;;;0.93;;
72771;SDS011;60894;42.544;1.516;2023-02-28T05:23:04;5.05;;;1.10;;
72771;SDS011;60894;42.544;1.516;2023-02-28T05:25:31;5.75;;;1.27;;
72771;SDS011;60894;42.544;1.516;2023-02-28T05:27:58;2.28;;;1.00;;
72771;SDS011;60894;42.544;1.516;2023-02-28T05:30:25;3.75;;;1.00;;
72771;SDS011;60894;42.544;1.516;2023-02-28T05:32:54;4.13;;;1.33;;
72771;SDS011;60894;42.544;1.516;2023-02-28T05:35:20;5.38;;;1.27;;
72771;SDS011;60894;42.544;1.516;2023-02-28T05:37:47;2.95;;;1.13;;
72771;SDS011;60894;42.544;1.516;2023-02-28T05:40:14;5.15;;;1.60;;
72771;SDS011;60894;42.544;1.516;2023-02-28T05:42:41;3.72;;;1.40;;
72771;SDS011;60894;42.544;1.516;2023-02-28T05:45:09;3.13;;;1.13;;
72771;SDS011;60894;42.544;1.516;2023-02-28T05:47:36;1.70;;;0.85;;
72771;SDS011;60894;42.544;1.516;2023-02-28T05:50:05;3.67;;;0.90;;
72771;SDS011;60894;42.544;1.516;2023-02-28T05:52:34;2.83;;;0.90;;
72771;SDS011;60894;42.544;1.516;2023-02-28T05:55:01;2.47;;;0.88;;
72771;SDS011;60894;42.544;1.516;2023-02-28T05:57:28;2.10;;;0.83;;
72771;SDS011;60894;42.544;1.516;2023-02-28T05:59:55;3.88;;;1.20;;
72771;SDS011;60894;42.544;1.516;2023-02-28T06:02:24;3.92;;;1.05;;
72771;SDS011;60894;42.544;1.516;2023-02-28T06:04:51;3.28;;;1.00;;
72771;SDS011;60894;42.544;1.516;2023-02-28T06:07:19;3.40;;;1.00;;
72771;SDS011;60894;42.544;1.516;2023-02-28T06:09:47;3.30;;;1.00;;
72771;SDS011;60894;42.544;1.516;2023-02-28T06:12:14;2.83;;;0.80;;
72771;SDS011;60894;42.544;1.516;2023-02-28T06:14:41;2.45;;;0.85;;
72771;SDS011;60894;42.544;1.516;2023-02-28T06:17:08;3.85;;;1.02;;
72771;SDS011;60894;42.544;1.516;2023-02-28T06:19:36;2.17;;;0.88;;
72771;SDS011;60894;42.544;1.516;2023-02-28T06:22:04;2.07;;;0.90;;
72771;SDS011;60894;42.544;1.516;2023-02-28T06:24:32;3.67;;;1.17;;
72771;SDS011;60894;42.544;1.516;2023-02-28T06:26:59;1.85;;;1.00;;
72771;SDS011;60894;42.544;1.516;2023-02-28T06:29:30;4.63;;;1.70;;
72771;SDS011;60894;42.544;1.516;2023-02-28T06:31:57;6.47;;;2.42;;
72771;SDS011;60894;42.544;1.516;2023-02-28T06:34:24;6.40;;;2.00;;
72771;SDS011;60894;42.544;1.516;2023-02-28T06:36:51;5.38;;;1.40;;
72771;SDS011;60894;42.544;1.516;2023-02-28T06:39:18;4.30;;;1.40;;
72771;SDS011;60894;42.544;1.516;2023-02-28T06:41:47;6.43;;;2.30;;
72771;SDS011;60894;42.544;1.516;2023-02-28T06:44:14;5.55;;;2.40;;
72771;SDS011;60894;42.544;1.516;2023-02-28T06:46:43;7.17;;;1.87;;
72771;SDS011;60894;42.544;1.516;2023-02-28T06:49:11;5.85;;;1.50;;
72771;SDS011;60894;42.544;1.516;2023-02-28T06:51:40;1.95;;;0.82;;
72771;SDS011;60894;42.544;1.516;2023-02-28T06:54:10;4.82;;;1.52;;
72771;SDS011;60894;42.544;1.516;2023-02-28T06:56:37;10.45;;;3.17;;
72771;SDS011;60894;42.544;1.516;2023-02-28T06:59:06;6.20;;;2.20;;
72771;SDS011;60894;42.544;1.516;2023-02-28T07:01:33;5.00;;;1.10;;
72771;SDS011;60894;42.544;1.516;2023-02-28T07:04:00;4.47;;;1.40;;
72771;SDS011;60894;42.544;1.516;2023-02-28T07:06:27;3.65;;;1.50;;
72771;SDS011;60894;42.544;1.516;2023-02-28T07:08:54;3.10;;;1.00;;
72771;SDS011;60894;42.544;1.516;2023-02-28T07:11:22;3.47;;;1.20;;
72771;SDS011;60894;42.544;1.516;2023-02-28T07:13:51;3.03;;;1.10;;
72771;SDS011;60894;42.544;1.516;2023-02-28T07:16:19;4.60;;;1.30;;
72771;SDS011;60894;42.544;1.516;2023-02-28T07:18:48;4.60;;;1.90;;
72771;SDS011;60894;42.544;1.516;2023-02-28T07:21:16;5.40;;;1.25;;
72771;SDS011;60894;42.544;1.516;2023-02-28T07:23:43;4.20;;;1.30;;
72771;SDS011;60894;42.544;1.516;2023-02-28T07:26:11;4.15;;;1.80;;
72771;SDS011;60894;42.544;1.516;2023-02-28T07:28:40;4.40;;;1.58;;
72771;SDS011;60894;42.544;1.516;2023-02-28T07:31:08;4.78;;;1.30;;
72771;SDS011;60894;42.544;1.516;2023-02-28T07:33:40;3.00;;;1.30;;
72771;SDS011;60894;42.544;1.516;2023-02-28T07:36:08;5.03;;;1.50;;
72771;SDS011;60894;42.544;1.516;2023-02-28T07:38:39;4.13;;;1.48;;
72771;SDS011;60894;42.544;1.516;2023-02-28T07:41:05;5.90;;;1.95;;
72771;SDS011;60894;42.544;1.516;2023-02-28T07:43:33;6.55;;;2.00;;
72771;SDS011;60894;42.544;1.516;2023-02-28T07:46:01;5.90;;;1.90;;
72771;SDS011;60894;42.544;1.516;2023-02-28T07:48:29;11.53;;;2.67;;
72771;SDS011;60894;42.544;1.516;2023-02-28T07:50:57;8.63;;;2.30;;
72771;SDS011;60894;42.544;1.516;2023-02-28T07:53:25;6.57;;;2.63;;
72771;SDS011;60894;42.544;1.516;2023-02-28T07:55:54;12.25;;;3.47;;
72771;SDS011;60894;42.544;1.516;2023-02-28T07:58:21;9.18;;;2.90;;
72771;SDS011;60894;42.544;1.516;2023-02-28T08:00:48;16.03;;;4.07;;
72771;SDS011;60894;42.544;1.516;2023-02-28T08:03:15;10.40;;;4.03;;
72771;SDS011;60894;42.544;1.516;2023-02-28T08:05:43;15.00;;;6.43;;
72771;SDS011;60894;42.544;1.516;2023-02-28T08:08:11;13.02;;;4.88;;
72771;SDS011;60894;42.544;1.516;2023-02-28T08:10:38;13.73;;;4.68;;
72771;SDS011;60894;42.544;1.516;2023-02-28T08:13:05;11.33;;;4.00;;
72771;SDS011;60894;42.544;1.516;2023-02-28T08:15:32;14.48;;;4.15;;
72771;SDS011;60894;42.544;1.516;2023-02-28T08:17:59;11.30;;;4.10;;
72771;SDS011;60894;42.544;1.516;2023-02-28T08:20:26;11.35;;;4.20;;
72771;SDS011;60894;42.544;1.516;2023-02-28T08:22:53;14.95;;;5.13;;
72771;SDS011;60894;42.544;1.516;2023-02-28T08:25:22;18.77;;;5.23;;
72771;SDS011;60894;42.544;1.516;2023-02-28T08:27:50;10.02;;;3.47;;
72771;SDS011;60894;42.544;1.516;2023-02-28T08:30:17;10.43;;;3.10;;
72771;SDS011;60894;42.544;1.516;2023-02-28T08:32:44;6.90;;;2.45;;
72771;SDS011;60894;42.544;1.516;2023-02-28T08:35:11;10.75;;;2.78;;
72771;SDS011;60894;42.544;1.516;2023-02-28T08:37:37;4.43;;;1.17;;
72771;SDS011;60894;42.544;1.516;2023-02-28T08:40:05;4.35;;;1.35;;
72771;SDS011;60894;42.544;1.516;2023-02-28T08:42:34;5.88;;;2.10;;
72771;SDS011;60894;42.544;1.516;2023-02-28T08:45:01;4.60;;;2.00;;
72771;SDS011;60894;42.544;1.516;2023-02-28T08:47:29;6.03;;;2.53;;
72771;SDS011;60894;42.544;1.516;2023-02-28T08:49:56;6.00;;;1.77;;
72771;SDS011;60894;42.544;1.516;2023-02-28T08:52:22;3.10;;;1.10;;
72771;SDS011;60894;42.544;1.516;2023-02-28T08:54:49;4.25;;;1.02;;
72771;SDS011;60894;42.544;1.516;2023-02-28T08:57:16;2.88;;;0.90;;
72771;SDS011;60894;42.544;1.516;2023-02-28T08:59:44;3.30;;;0.80;;
72771;SDS011;60894;42.544;1.516;2023-02-28T09:02:12;1.30;;;0.60;;
72771;SDS011;60894;42.544;1.516;2023-02-28T09:04:39;1.73;;;0.85;;
72771;SDS011;60894;42.544;1.516;2023-02-28T09:07:07;5.97;;;1.50;;
72771;SDS011;60894;42.544;1.516;2023-02-28T09:09:34;1.60;;;0.70;;
72771;SDS011;60894;42.544;1.516;2023-02-28T09:12:00;2.40;;;0.60;;
72771;SDS011;60894;42.544;1.516;2023-02-28T09:14:27;3.40;;;1.10;;
72771;SDS011;60894;42.544;1.516;2023-02-28T09:16:56;1.15;;;0.60;;
72771;SDS011;60894;42.544;1.516;2023-02-28T09:19:24;0.52;;;0.38;;
72771;SDS011;60894;42.544;1.516;2023-02-28T09:21:51;1.65;;;0.60;;
72771;SDS011;60894;42.544;1.516;2023-02-28T09:24:17;1.73;;;0.80;;
72771;SDS011;60894;42.544;1.516;2023-02-28T09:26:45;3.80;;;0.77;;
72771;SDS011;60894;42.544;1.516;2023-02-28T09:29:12;2.22;;;0.60;;
72771;SDS011;60894;42.544;1.516;2023-02-28T09:31:40;2.20;;;0.40;;
72771;SDS011;60894;42.544;1.516;2023-02-28T09:34:09;1.73;;;0.50;;
72771;SDS011;60894;42.544;1.516;2023-02-28T09:36:36;4.03;;;0.70;;
72771;SDS011;60894;42.544;1.516;2023-02-28T09:39:03;4.20;;;0.90;;
72771;SDS011;60894;42.544;1.516;2023-02-28T09:41:32;3.83;;;0.70;;
72771;SDS011;60894;42.544;1.516;2023-02-28T09:44:13;4.78;;;0.82;;
72771;SDS011;60894;42.544;1.516;2023-02-28T09:46:47;2.95;;;0.82;;
72771;SDS011;60894;42.544;1.516;2023-02-28T09:49:19;2.88;;;0.90;;
72771;SDS011;60894;42.544;1.516;2023-02-28T09:51:51;0.63;;;0.60;;
72771;SDS011;60894;42.544;1.516;2023-02-28T09:54:24;1.25;;;0.50;;
72771;SDS011;60894;42.544;1.516;2023-02-28T09:56:55;4.68;;;0.80;;
72771;SDS011;60894;42.544;1.516;2023-02-28T09:59:33;1.83;;;0.65;;
72771;SDS011;60894;42.544;1.516;2023-02-28T10:02:18;2.70;;;0.93;;
72771;SDS011;60894;42.544;1.516;2023-02-28T10:05:01;3.60;;;0.90;;
72771;SDS011;60894;42.544;1.516;2023-02-28T10:07:37;1.95;;;0.77;;
72771;SDS011;60894;42.544;1.516;2023-02-28T10:10:17;4.57;;;0.63;;
72771;SDS011;60894;42.544;1.516;2023-02-28T10:12:47;3.22;;;1.00;;
72771;SDS011;60894;42.544;1.516;2023-02-28T10:15:18;5.72;;;1.00;;
72771;SDS011;60894;42.544;1.516;2023-02-28T10:17:49;3.40;;;1.13;;
72771;SDS011;60894;42.544;1.516;2023-02-28T10:20:22;3.10;;;0.93;;
72771;SDS011;60894;42.544;1.516;2023-02-28T10:22:57;1.80;;;0.50;;
72771;SDS011;60894;42.544;1.516;2023-02-28T10:25:32;3.03;;;0.60;;
72771;SDS011;60894;42.544;1.516;2023-02-28T10:28:01;3.00;;;0.90;;
72771;SDS011;60894;42.544;1.516;2023-02-28T10:30:34;2.90;;;0.80;;
72771;SDS011;60894;42.544;1.516;2023-02-28T10:33:01;3.20;;;0.70;;
72771;SDS011;60894;42.544;1.516;2023-02-28T10:35:29;1.75;;;0.60;;
72771;SDS011;60894;42.544;1.516;2023-02-28T10:37:59;1.35;;;0.63;;
72771;SDS011;60894;42.544;1.516;2023-02-28T10:40:35;0.80;;;0.50;;
72771;SDS011;60894;42.544;1.516;2023-02-28T10:43:02;1.53;;;0.50;;
72771;SDS011;60894;42.544;1.516;2023-02-28T10:45:31;2.22;;;0.60;;
72771;SDS011;60894;42.544;1.516;2023-02-28T10:48:00;2.35;;;1.00;;
72771;SDS011;60894;42.544;1.516;2023-02-28T10:50:32;3.03;;;0.90;;
72771;SDS011;60894;42.544;1.516;2023-02-28T10:56:03;3.90;;;0.90;;
72771;SDS011;60894;42.544;1.516;2023-02-28T10:58:34;2.15;;;0.70;;
72771;SDS011;60894;42.544;1.516;2023-02-28T11:01:13;5.47;;;1.80;;
72771;SDS011;60894;42.544;1.516;2023-02-28T11:03:41;2.75;;;1.10;;
72771;SDS011;60894;42.544;1.516;2023-02-28T11:06:12;4.30;;;0.65;;
72771;SDS011;60894;42.544;1.516;2023-02-28T11:08:44;2.17;;;0.60;;
72771;SDS011;60894;42.544;1.516;2023-02-28T11:11:13;3.33;;;0.80;;
72771;SDS011;60894;42.544;1.516;2023-02-28T11:13:42;3.47;;;0.90;;
72771;SDS011;60894;42.544;1.516;2023-02-28T11:16:12;3.72;;;1.10;;
72771;SDS011;60894;42.544;1.516;2023-02-28T11:18:41;2.78;;;0.60;;
72771;SDS011;60894;42.544;1.516;2023-02-28T11:21:15;3.03;;;0.50;;
72771;SDS011;60894;42.544;1.516;2023-02-28T11:23:46;0.73;;;0.40;;
72771;SDS011;60894;42.544;1.516;2023-02-28T11:26:15;2.78;;;0.60;;
72771;SDS011;60894;42.544;1.516;2023-02-28T11:29:03;5.78;;;1.00;;
72771;SDS011;60894;42.544;1.516;2023-02-28T11:31:38;3.55;;;0.52;;
72771;SDS011;60894;42.544;1.516;2023-02-28T11:36:51;1.40;;;0.70;;
72771;SDS011;60894;42.544;1.516;2023-02-28T11:39:19;3.60;;;1.30;;
72771;SDS011;60894;42.544;1.516;2023-02-28T11:41:51;2.45;;;0.90;;
72771;SDS011;60894;42.544;1.516;2023-02-28T11:44:33;2.08;;;0.60;;
72771;SDS011;60894;42.544;1.516;2023-02-28T11:47:11;2.40;;;0.80;;
72771;SDS011;60894;42.544;1.516;2023-02-28T11:49:45;0.90;;;0.60;;
72771;SDS011;60894;42.544;1.516;2023-02-28T11:52:29;12.27;;;4.38;;
72771;SDS011;60894;42.544;1.516;2023-02-28T11:57:55;2.45;;;0.80;;
72771;SDS011;60894;42.544;1.516;2023-02-28T12:00:35;3.00;;;1.07;;
72771;SDS011;60894;42.544;1.516;2023-02-28T12:03:16;3.03;;;1.05;;
72771;SDS011;60894;42.544;1.516;2023-02-28T12:05:54;2.17;;;1.02;;
72771;SDS011;60894;42.544;1.516;2023-02-28T12:08:37;5.65;;;1.30;;
72771;SDS011;60894;42.544;1.516;2023-02-28T12:11:18;1.23;;;0.45;;
72771;SDS011;60894;42.544;1.516;2023-02-28T12:13:57;3.73;;;0.90;;
72771;SDS011;60894;42.544;1.516;2023-02-28T12:16:39;4.88;;;0.70;;
72771;SDS011;60894;42.544;1.516;2023-02-28T12:19:16;3.33;;;0.88;;
72771;SDS011;60894;42.544;1.516;2023-02-28T12:21:53;2.05;;;0.55;;
72771;SDS011;60894;42.544;1.516;2023-02-28T12:24:39;1.50;;;0.77;;
72771;SDS011;60894;42.544;1.516;2023-02-28T12:27:17;3.10;;;1.00;;
72771;SDS011;60894;42.544;1.516;2023-02-28T12:29:47;5.45;;;0.90;;
72771;SDS011;60894;42.544;1.516;2023-02-28T12:32:19;1.63;;;0.40;;
72771;SDS011;60894;42.544;1.516;2023-02-28T12:34:50;0.82;;;0.40;;
72771;SDS011;60894;42.544;1.516;2023-02-28T12:37:20;0.90;;;0.40;;
72771;SDS011;60894;42.544;1.516;2023-02-28T12:39:52;1.67;;;0.50;;
72771;SDS011;60894;42.544;1.516;2023-02-28T12:42:24;1.88;;;0.60;;
72771;SDS011;60894;42.544;1.516;2023-02-28T12:44:56;1.95;;;0.52;;
72771;SDS011;60894;42.544;1.516;2023-02-28T12:47:25;2.38;;;0.43;;
72771;SDS011;60894;42.544;1.516;2023-02-28T12:49:53;1.00;;;0.70;;
72771;SDS011;60894;42.544;1.516;2023-02-28T12:52:25;14.03;;;5.00;;
72771;SDS011;60894;42.544;1.516;2023-02-28T12:55:00;8.30;;;2.85;;
72771;SDS011;60894;42.544;1.516;2023-02-28T12:57:34;6.13;;;2.08;;
72771;SDS011;60894;42.544;1.516;2023-02-28T13:00:09;4.93;;;1.80;;
72771;SDS011;60894;42.544;1.516;2023-02-28T13:05:41;13.53;;;4.97;;
72771;SDS011;60894;42.544;1.516;2023-02-28T13:11:28;22.35;;;7.53;;
72771;SDS011;60894;42.544;1.516;2023-02-28T13:13:57;13.02;;;3.95;;
72771;SDS011;60894;42.544;1.516;2023-02-28T13:16:25;2.30;;;1.02;;
72771;SDS011;60894;42.544;1.516;2023-02-28T13:18:52;3.80;;;0.97;;
72771;SDS011;60894;42.544;1.516;2023-02-28T13:21:41;1.90;;;0.85;;
72771;SDS011;60894;42.544;1.516;2023-02-28T13:24:09;2.72;;;0.95;;
72771;SDS011;60894;42.544;1.516;2023-02-28T13:29:50;7.70;;;2.13;;
72771;SDS011;60894;42.544;1.516;2023-02-28T13:44:00;1.77;;;1.15;;
72771;SDS011;60894;42.544;1.516;2023-02-28T13:46:29;11.27;;;3.73;;
72771;SDS011;60894;42.544;1.516;2023-02-28T13:49:01;4.53;;;0.80;;
72771;SDS011;60894;42.544;1.516;2023-02-28T13:51:45;4.28;;;1.10;;
72771;SDS011;60894;42.544;1.516;2023-02-28T13:54:17;2.50;;;1.00;;
72771;SDS011;60894;42.544;1.516;2023-02-28T13:56:53;4.60;;;0.73;;
72771;SDS011;60894;42.544;1.516;2023-02-28T13:59:33;1.87;;;0.53;;
72771;SDS011;60894;42.544;1.516;2023-02-28T14:02:20;1.05;;;0.40;;
72771;SDS011;60894;42.544;1.516;2023-02-28T14:05:01;1.35;;;0.70;;
72771;SDS011;60894;42.544;1.516;2023-02-28T14:07:32;1.85;;;0.70;;
72771;SDS011;60894;42.544;1.516;2023-02-28T14:10:15;3.05;;;0.60;;
72771;SDS011;60894;42.544;1.516;2023-02-28T14:13:00;1.10;;;0.80;;
72771;SDS011;60894;42.544;1.516;2023-02-28T14:15:34;1.45;;;1.00;;
72771;SDS011;60894;42.544;1.516;2023-02-28T14:18:06;3.08;;;0.60;;
72771;SDS011;60894;42.544;1.516;2023-02-28T14:20:44;3.80;;;0.77;;
72771;SDS011;60894;42.544;1.516;2023-02-28T14:23:15;4.78;;;0.70;;
72771;SDS011;60894;42.544;1.516;2023-02-28T14:25:54;3.63;;;0.60;;
72771;SDS011;60894;42.544;1.516;2023-02-28T14:28:39;2.07;;;0.53;;
72771;SDS011;60894;42.544;1.516;2023-02-28T14:31:16;5.18;;;1.00;;
72771;SDS011;60894;42.544;1.516;2023-02-28T14:33:55;1.83;;;0.40;;
72771;SDS011;60894;42.544;1.516;2023-02-28T14:36:31;3.17;;;0.55;;
72771;SDS011;60894;42.544;1.516;2023-02-28T14:39:04;1.70;;;0.63;;
72771;SDS011;60894;42.544;1.516;2023-02-28T14:41:33;2.27;;;0.87;;
72771;SDS011;60894;42.544;1.516;2023-02-28T14:44:13;3.38;;;0.70;;
72771;SDS011;60894;42.544;1.516;2023-02-28T14:46:43;3.33;;;1.38;;
72771;SDS011;60894;42.544;1.516;2023-02-28T14:49:13;8.85;;;1.40;;
72771;SDS011;60894;42.544;1.516;2023-02-28T14:51:43;4.10;;;1.10;;
72771;SDS011;60894;42.544;1.516;2023-02-28T14:54:13;7.60;;;1.60;;
72771;SDS011;60894;42.544;1.516;2023-02-28T14:56:41;7.00;;;1.65;;
72771;SDS011;60894;42.544;1.516;2023-02-28T14:59:23;6.93;;;1.45;;
72771;SDS011;60894;42.544;1.516;2023-02-28T15:01:53;5.88;;;0.88;;
72771;SDS011;60894;42.544;1.516;2023-02-28T15:04:40;4.45;;;1.02;;
72771;SDS011;60894;42.544;1.516;2023-02-28T15:07:08;3.27;;;1.20;;
72771;SDS011;60894;42.544;1.516;2023-02-28T15:09:36;4.07;;;1.58;;
72771;SDS011;60894;42.544;1.516;2023-02-28T15:12:03;2.70;;;0.93;;
72771;SDS011;60894;42.544;1.516;2023-02-28T15:14:30;3.17;;;1.20;;
72771;SDS011;60894;42.544;1.516;2023-02-28T15:16:59;5.25;;;1.77;;
72771;SDS011;60894;42.544;1.516;2023-02-28T15:19:29;2.70;;;1.00;;
72771;SDS011;60894;42.544;1.516;2023-02-28T15:21:59;6.20;;;1.58;;
72771;SDS011;60894;42.544;1.516;2023-02-28T15:24:31;9.27;;;1.85;;
72771;SDS011;60894;42.544;1.516;2023-02-28T15:27:04;2.38;;;0.70;;
72771;SDS011;60894;42.544;1.516;2023-02-28T15:29:34;5.00;;;1.25;;
72771;SDS011;60894;42.544;1.516;2023-02-28T15:32:16;0.80;;;0.60;;
72771;SDS011;60894;42.544;1.516;2023-02-28T15:34:50;5.30;;;1.42;;
72771;SDS011;60894;42.544;1.516;2023-02-28T15:37:27;4.00;;;1.02;;
72771;SDS011;60894;42.544;1.516;2023-02-28T15:39:56;1.88;;;0.90;;
72771;SDS011;60894;42.544;1.516;2023-02-28T15:42:27;1.02;;;0.93;;
72771;SDS011;60894;42.544;1.516;2023-02-28T15:44:56;3.80;;;1.50;;